createdAt,value
2023-01-27T01:48:52.079Z,-7.81
2023-01-27T01:51:32.522Z,-7.75
2023-01-27T01:54:07.177Z,-7.76
2023-01-27T01:56:43.212Z,-7.78
2023-01-27T01:59:20.385Z,-7.80
2023-01-27T02:01:51.131Z,-7.83
2023-01-27T02:04:24.089Z,-7.85
2023-01-27T02:07:12.741Z,-7.88
2023-01-27T02:09:41.651Z,-7.90
2023-01-27T02:12:10.413Z,-7.92
2023-01-27T02:14:40.343Z,-7.93
2023-01-27T02:17:10.129Z,-7.96
2023-01-27T02:20:19.596Z,-7.97
2023-01-27T02:23:07.771Z,-7.98
2023-01-27T02:25:41.037Z,-7.99
2023-01-27T02:28:09.857Z,-8.00
2023-01-27T02:30:38.565Z,-8.00
2023-01-27T02:33:15.288Z,-8.02
2023-01-27T02:35:44.192Z,-8.03
2023-01-27T02:38:14.282Z,-8.04
2023-01-27T02:40:44.116Z,-8.07
2023-01-27T02:43:14.993Z,-8.08
2023-01-27T02:45:47.166Z,-8.08
2023-01-27T02:48:16.032Z,-8.10
2023-01-27T02:50:44.766Z,-8.11
2023-01-27T02:53:13.741Z,-8.12
2023-01-27T02:55:43.070Z,-8.12
2023-01-27T02:58:12.257Z,-8.11
2023-01-27T03:00:49.147Z,-8.09
2023-01-27T03:03:18.006Z,-8.09
2023-01-27T03:05:47.876Z,-8.08
2023-01-27T03:08:17.741Z,-8.07
2023-01-27T03:10:50.434Z,-8.07
2023-01-27T03:13:23.981Z,-8.06
2023-01-27T03:16:14.581Z,-8.06
2023-01-27T03:18:47.611Z,-8.07
2023-01-27T03:21:17.708Z,-8.06
2023-01-27T03:23:49.277Z,-8.06
2023-01-27T03:26:21.792Z,-8.07
2023-01-27T03:29:14.199Z,-8.06
2023-01-27T03:31:44.972Z,-8.07
2023-01-27T03:34:13.943Z,-8.08
2023-01-27T03:37:07.889Z,-8.10
2023-01-27T03:39:55.584Z,-8.12
2023-01-27T03:42:43.573Z,-8.15
2023-01-27T03:45:31.339Z,-8.15
2023-01-27T03:47:59.889Z,-8.16
2023-01-27T03:50:38.080Z,-8.18
2023-01-27T03:53:07.429Z,-8.19
2023-01-27T03:55:36.954Z,-8.20
2023-01-27T03:58:20.261Z,-8.20
2023-01-27T04:00:54.105Z,-8.20
2023-01-27T04:03:42.984Z,-8.21
2023-01-27T04:06:33.208Z,-8.22
2023-01-27T04:09:02.360Z,-8.22
2023-01-27T04:11:49.572Z,-8.23
2023-01-27T04:14:18.496Z,-8.22
2023-01-27T04:16:47.964Z,-8.22
2023-01-27T04:19:16.904Z,-8.22
2023-01-27T04:21:45.763Z,-8.22
2023-01-27T04:24:18.088Z,-8.22
2023-01-27T04:26:47.136Z,-8.24
2023-01-27T04:29:16.524Z,-8.24
2023-01-27T04:31:45.176Z,-8.21
2023-01-27T04:34:14.300Z,-8.16
2023-01-27T04:36:43.199Z,-8.08
2023-01-27T04:39:12.013Z,-7.99
2023-01-27T04:41:41.029Z,-7.90
2023-01-27T04:44:10.599Z,-7.83
2023-01-27T04:46:39.629Z,-7.75
2023-01-27T04:49:08.448Z,-7.66
2023-01-27T04:51:37.331Z,-7.60
2023-01-27T04:54:06.319Z,-7.53
2023-01-27T04:56:37.436Z,-7.47
2023-01-27T04:59:11.203Z,-7.43
2023-01-27T05:01:39.971Z,-7.39
2023-01-27T05:04:08.610Z,-7.34
2023-01-27T05:06:38.650Z,-7.29
2023-01-27T05:09:07.999Z,-7.25
2023-01-27T05:11:36.679Z,-7.24
2023-01-27T05:14:08.324Z,-7.20
2023-01-27T05:16:38.614Z,-7.18
2023-01-27T05:19:08.684Z,-7.16
2023-01-27T05:21:38.171Z,-7.15
2023-01-27T05:24:06.872Z,-7.12
2023-01-27T05:26:37.011Z,-7.09
2023-01-27T05:29:05.916Z,-7.06
2023-01-27T05:31:35.309Z,-7.00
2023-01-27T05:34:04.134Z,-6.96
2023-01-27T05:36:34.032Z,-6.97
2023-01-27T05:39:02.608Z,-7.03
2023-01-27T05:41:31.627Z,-7.05
2023-01-27T05:44:00.621Z,-7.06
2023-01-27T05:46:30.653Z,-7.07
2023-01-27T05:49:00.660Z,-7.07
2023-01-27T05:51:30.913Z,-7.03
2023-01-27T05:53:59.607Z,-6.99
2023-01-27T05:56:28.387Z,-6.96
2023-01-27T05:59:01.628Z,-6.93
2023-01-27T06:01:31.909Z,-6.88
2023-01-27T06:04:00.719Z,-6.85
2023-01-27T06:06:30.772Z,-6.83
2023-01-27T06:08:59.827Z,-6.79
2023-01-27T06:11:28.534Z,-6.75
2023-01-27T06:14:02.652Z,-6.68
2023-01-27T06:16:33.088Z,-6.62
2023-01-27T06:19:01.801Z,-6.59
2023-01-27T06:21:31.441Z,-6.57
2023-01-27T06:24:00.282Z,-6.54
2023-01-27T06:26:29.537Z,-6.49
2023-01-27T06:28:58.276Z,-6.44
2023-01-27T06:31:27.770Z,-6.40
2023-01-27T06:33:56.748Z,-6.39
2023-01-27T06:36:25.532Z,-6.32
2023-01-27T06:38:55.007Z,-6.29
2023-01-27T06:41:25.169Z,-6.24
2023-01-27T06:43:53.910Z,-6.20
2023-01-27T06:46:22.739Z,-6.14
2023-01-27T06:48:53.414Z,-6.05
2023-01-27T06:51:22.459Z,-5.99
2023-01-27T06:53:51.355Z,-5.90
2023-01-27T06:56:20.172Z,-5.83
2023-01-27T06:58:48.677Z,-5.77
2023-01-27T07:01:17.697Z,-5.70
2023-01-27T07:03:46.566Z,-5.64
2023-01-27T07:06:16.430Z,-5.57
2023-01-27T07:08:47.824Z,-5.50
2023-01-27T07:11:16.517Z,-5.46
2023-01-27T07:13:45.419Z,-5.45
2023-01-27T07:16:14.317Z,-5.48
2023-01-27T07:18:43.204Z,-5.56
2023-01-27T07:21:11.681Z,-5.64
2023-01-27T07:23:40.374Z,-5.67
2023-01-27T07:26:23.342Z,-5.65
2023-01-27T07:28:53.547Z,-5.63
2023-01-27T07:31:22.870Z,-5.67
2023-01-27T07:33:53.865Z,-5.65
2023-01-27T07:36:22.563Z,-5.63
2023-01-27T07:38:51.398Z,-5.60
2023-01-27T07:41:20.179Z,-5.55
2023-01-27T07:43:51.504Z,-5.51
2023-01-27T07:46:21.424Z,-5.45
2023-01-27T07:48:50.653Z,-5.35
2023-01-27T07:51:21.135Z,-5.29
2023-01-27T07:53:49.749Z,-5.29
2023-01-27T07:56:18.385Z,-5.22
2023-01-27T07:58:47.066Z,-5.19
2023-01-27T11:16:02.505Z,-2.80
2023-01-27T11:18:33.150Z,-2.62
2023-01-27T11:21:06.258Z,-2.60
2023-01-27T11:23:39.329Z,-2.57
2023-01-27T11:26:44.120Z,-2.58
2023-01-27T11:29:23.017Z,-2.61
2023-01-27T11:32:19.530Z,-2.62
2023-01-27T11:35:01.298Z,-2.62
2023-01-27T11:37:41.423Z,-2.56
2023-01-27T11:40:17.574Z,-2.52
2023-01-27T11:42:46.992Z,-2.46
2023-01-27T11:45:20.392Z,-2.40
2023-01-27T11:47:51.544Z,-2.37
2023-01-27T11:50:21.223Z,-2.32
2023-01-27T11:52:51.542Z,-2.24
2023-01-27T11:55:27.546Z,-2.17
2023-01-27T11:58:26.425Z,-2.12
2023-01-27T12:00:57.964Z,-2.03
2023-01-27T12:03:42.171Z,-1.99
2023-01-27T12:06:17.094Z,-2.02
2023-01-27T12:08:46.953Z,-2.04
2023-01-27T12:11:26.707Z,-2.07
2023-01-27T12:13:57.124Z,-2.08
2023-01-27T12:16:49.648Z,-2.06
2023-01-27T12:19:33.055Z,-1.94
2023-01-27T12:22:07.322Z,-1.80
2023-01-27T12:24:38.867Z,-1.67
2023-01-27T12:27:07.573Z,-1.51
2023-01-27T12:29:47.332Z,-1.41
2023-01-27T12:32:18.451Z,-1.45
2023-01-27T12:34:50.081Z,-1.51
2023-01-27T12:37:31.760Z,-1.55
2023-01-27T12:41:16.334Z,-1.59
2023-01-27T12:43:52.657Z,-1.60
2023-01-27T12:46:23.618Z,-1.56
2023-01-27T12:48:55.028Z,-1.54
2023-01-27T12:51:25.026Z,-1.46
2023-01-27T12:54:14.136Z,-1.31
2023-01-27T12:56:44.323Z,-1.12
2023-01-27T12:59:17.603Z,-1.00
2023-01-27T13:02:16.862Z,-0.96
2023-01-27T13:04:53.531Z,-0.90
2023-01-27T13:07:30.378Z,-0.80
2023-01-27T13:10:03.998Z,-0.66
2023-01-27T13:12:48.236Z,-0.55
2023-01-27T13:15:19.460Z,-0.47
2023-01-27T13:17:56.053Z,-0.35
2023-01-27T13:20:42.073Z,-0.31
2023-01-27T13:23:21.608Z,-0.28
2023-01-27T13:26:07.794Z,-0.26
2023-01-27T13:28:55.399Z,-0.28
2023-01-27T13:31:33.693Z,-0.30
2023-01-27T13:34:37.151Z,-0.33
2023-01-27T13:37:15.142Z,-0.34
2023-01-27T13:40:19.621Z,-0.40
2023-01-27T13:42:52.313Z,-0.51
2023-01-27T13:45:40.852Z,-0.55
2023-01-27T13:48:27.166Z,-0.54
2023-01-27T13:51:04.483Z,-0.53
2023-01-27T13:53:34.702Z,-0.56
2023-01-27T13:56:06.441Z,-0.64
2023-01-27T13:59:12.980Z,-0.74
2023-01-27T14:02:20.598Z,-0.86
2023-01-27T14:05:21.561Z,-0.96
2023-01-27T14:08:02.933Z,-1.08
2023-01-27T14:10:41.653Z,-1.17
2023-01-27T14:13:38.633Z,-1.24
2023-01-27T14:16:28.442Z,-1.32
2023-01-27T14:19:26.158Z,-1.39
2023-01-27T14:22:00.384Z,-1.48
2023-01-27T14:25:00.307Z,-1.55
2023-01-27T14:27:37.027Z,-1.64
2023-01-27T14:30:18.166Z,-1.70
2023-01-27T14:32:53.453Z,-1.76
2023-01-27T14:35:52.284Z,-1.79
2023-01-27T14:38:29.485Z,-1.84
2023-01-27T14:41:07.320Z,-1.90
2023-01-27T14:43:58.957Z,-1.94
2023-01-27T14:46:37.346Z,-2.00
2023-01-27T14:49:09.281Z,-2.04
2023-01-27T14:52:01.409Z,-2.08
2023-01-27T14:54:45.786Z,-2.11
2023-01-27T14:57:26.189Z,-2.14
2023-01-27T15:00:20.668Z,-2.16
2023-01-27T15:02:59.824Z,-2.19
2023-01-27T15:05:31.423Z,-2.22
2023-01-27T15:08:12.119Z,-2.24
2023-01-27T15:10:51.464Z,-2.25
2023-01-27T15:13:30.004Z,-2.27
2023-01-27T15:16:09.324Z,-2.31
2023-01-27T15:19:03.958Z,-2.32
2023-01-27T15:21:46.768Z,-2.34
2023-01-27T15:24:42.625Z,-2.36
2023-01-27T15:27:21.356Z,-2.37
2023-01-27T15:29:50.124Z,-2.37
2023-01-27T15:32:20.145Z,-2.38
2023-01-27T15:34:53.489Z,-2.36
2023-01-27T15:37:28.503Z,-2.35
2023-01-27T15:40:04.936Z,-2.37
2023-01-27T15:43:00.792Z,-2.39
2023-01-27T15:45:32.077Z,-2.40
2023-01-27T15:48:20.709Z,-2.40
2023-01-27T15:51:00.020Z,-2.39
2023-01-27T15:53:32.669Z,-2.38
2023-01-27T15:56:09.931Z,-2.36
2023-01-27T21:12:02.019Z,-4.68
2023-01-27T21:14:34.604Z,-4.63
2023-01-27T21:17:05.570Z,-4.64
2023-01-27T21:19:34.623Z,-4.65
2023-01-27T21:22:03.571Z,-4.68
2023-01-27T21:24:32.993Z,-4.70
2023-01-27T21:27:01.905Z,-4.73
2023-01-27T21:29:32.414Z,-4.76
2023-01-27T21:32:01.528Z,-4.79
2023-01-27T21:34:30.636Z,-4.84
2023-01-27T21:36:59.895Z,-4.88
2023-01-27T21:39:28.792Z,-4.92
2023-01-27T21:41:57.689Z,-4.94
2023-01-27T21:44:50.117Z,-4.98
2023-01-27T21:47:19.262Z,-5.02
2023-01-27T21:50:04.283Z,-5.05
2023-01-27T21:52:39.421Z,-5.07
2023-01-27T21:55:22.404Z,-5.09
2023-01-27T21:57:52.306Z,-5.12
2023-01-27T22:00:23.061Z,-5.14
2023-01-27T22:02:56.186Z,-5.15
2023-01-27T22:05:24.930Z,-5.17
2023-01-27T22:07:54.010Z,-5.18
2023-01-27T22:10:26.871Z,-5.20
2023-01-27T22:12:59.919Z,-5.23
2023-01-27T22:15:29.219Z,-5.24
2023-01-27T22:17:58.440Z,-5.26
2023-01-27T22:20:27.506Z,-5.26
2023-01-27T22:22:56.404Z,-5.27
2023-01-27T22:25:27.425Z,-5.28
2023-01-27T22:27:56.375Z,-5.29
2023-01-27T22:30:25.037Z,-5.28
2023-01-27T22:32:53.851Z,-5.29
2023-01-27T22:35:22.883Z,-5.29
2023-01-27T22:37:53.213Z,-5.31
2023-01-27T22:40:23.502Z,-5.32
2023-01-27T22:42:52.260Z,-5.32
2023-01-27T22:45:21.092Z,-5.32
2023-01-27T22:47:50.012Z,-5.31
2023-01-27T22:50:19.531Z,-5.30
2023-01-27T22:52:48.322Z,-5.29
2023-01-27T22:55:17.388Z,-5.27
2023-01-27T22:57:48.132Z,-5.26
2023-01-27T23:00:17.585Z,-5.24
2023-01-27T23:02:46.389Z,-5.25
2023-01-27T23:05:15.629Z,-5.25
2023-01-27T23:07:45.510Z,-5.25
2023-01-27T23:10:14.421Z,-5.27
2023-01-27T23:12:43.469Z,-5.30
2023-01-27T23:15:12.327Z,-5.33
2023-01-27T23:17:43.239Z,-5.36
2023-01-27T23:20:12.407Z,-5.39
2023-01-27T23:22:41.832Z,-5.42
2023-01-27T23:25:11.929Z,-5.45
2023-01-27T23:27:41.602Z,-5.48
2023-01-27T23:30:11.383Z,-5.49
2023-01-27T23:32:40.943Z,-5.52
2023-01-27T23:35:09.817Z,-5.56
2023-01-27T23:37:38.552Z,-5.59
2023-01-27T23:40:08.015Z,-5.63
2023-01-27T23:42:36.842Z,-5.68
2023-01-27T23:45:05.881Z,-5.72
2023-01-27T23:47:34.608Z,-5.77
2023-01-27T23:50:03.538Z,-5.82
2023-01-27T23:52:35.041Z,-5.85
2023-01-27T23:55:04.122Z,-5.88
2023-01-27T23:57:33.097Z,-5.90
